sensor_id;sensor_type;location;lat;lon;timestamp;P1;durP1;ratioP1;P2;durP2;ratioP2
75894;SDS011;64573;50.328;15.014;2024-02-28T00:01:20;35.17;;;15.82;;
75894;SDS011;64573;50.328;15.014;2024-02-28T00:03:46;35.92;;;15.98;;
75894;SDS011;64573;50.328;15.014;2024-02-28T00:06:12;38.03;;;17.50;;
75894;SDS011;64573;50.328;15.014;2024-02-28T00:08:37;34.17;;;15.45;;
75894;SDS011;64573;50.328;15.014;2024-02-28T00:11:03;40.15;;;15.15;;
75894;SDS011;64573;50.328;15.014;2024-02-28T00:13:28;35.63;;;14.73;;
75894;SDS011;64573;50.328;15.014;2024-02-28T00:15:53;37.75;;;16.15;;
75894;SDS011;64573;50.328;15.014;2024-02-28T00:18:19;38.72;;;17.23;;
75894;SDS011;64573;50.328;15.014;2024-02-28T00:20:44;38.08;;;14.93;;
75894;SDS011;64573;50.328;15.014;2024-02-28T00:23:10;31.80;;;13.85;;
75894;SDS011;64573;50.328;15.014;2024-02-28T00:25:35;33.78;;;14.55;;
75894;SDS011;64573;50.328;15.014;2024-02-28T00:28:01;33.08;;;13.60;;
75894;SDS011;64573;50.328;15.014;2024-02-28T00:30:26;34.95;;;13.88;;
75894;SDS011;64573;50.328;15.014;2024-02-28T00:32:53;30.92;;;12.95;;
75894;SDS011;64573;50.328;15.014;2024-02-28T00:35:19;29.70;;;12.32;;
75894;SDS011;64573;50.328;15.014;2024-02-28T00:37:44;28.42;;;12.63;;
75894;SDS011;64573;50.328;15.014;2024-02-28T00:40:10;27.73;;;12.88;;
75894;SDS011;64573;50.328;15.014;2024-02-28T00:42:35;29.10;;;14.05;;
75894;SDS011;64573;50.328;15.014;2024-02-28T00:47:30;27.67;;;13.10;;
75894;SDS011;64573;50.328;15.014;2024-02-28T00:49:55;25.63;;;12.23;;
75894;SDS011;64573;50.328;15.014;2024-02-28T00:52:21;27.33;;;12.35;;
75894;SDS011;64573;50.328;15.014;2024-02-28T00:54:46;27.42;;;12.25;;
75894;SDS011;64573;50.328;15.014;2024-02-28T00:57:12;26.95;;;11.90;;
75894;SDS011;64573;50.328;15.014;2024-02-28T00:59:37;27.15;;;11.80;;
75894;SDS011;64573;50.328;15.014;2024-02-28T01:02:02;26.85;;;12.52;;
75894;SDS011;64573;50.328;15.014;2024-02-28T01:04:28;27.70;;;12.02;;
75894;SDS011;64573;50.328;15.014;2024-02-28T01:06:54;25.38;;;11.95;;
75894;SDS011;64573;50.328;15.014;2024-02-28T01:11:49;30.55;;;12.90;;
75894;SDS011;64573;50.328;15.014;2024-02-28T01:14:14;24.27;;;11.98;;
75894;SDS011;64573;50.328;15.014;2024-02-28T01:16:39;25.95;;;12.70;;
75894;SDS011;64573;50.328;15.014;2024-02-28T01:19:05;23.80;;;11.75;;
75894;SDS011;64573;50.328;15.014;2024-02-28T01:21:30;26.55;;;11.10;;
75894;SDS011;64573;50.328;15.014;2024-02-28T01:23:55;22.20;;;11.27;;
75894;SDS011;64573;50.328;15.014;2024-02-28T01:26:21;25.55;;;11.55;;
75894;SDS011;64573;50.328;15.014;2024-02-28T01:28:47;19.73;;;10.00;;
75894;SDS011;64573;50.328;15.014;2024-02-28T01:31:13;18.85;;;9.10;;
75894;SDS011;64573;50.328;15.014;2024-02-28T01:33:39;21.75;;;10.82;;
75894;SDS011;64573;50.328;15.014;2024-02-28T01:36:08;17.17;;;9.32;;
75894;SDS011;64573;50.328;15.014;2024-02-28T01:38:33;19.58;;;9.88;;
75894;SDS011;64573;50.328;15.014;2024-02-28T01:40:58;22.83;;;9.88;;
75894;SDS011;64573;50.328;15.014;2024-02-28T01:43:24;18.67;;;9.27;;
75894;SDS011;64573;50.328;15.014;2024-02-28T01:45:49;16.55;;;8.73;;
75894;SDS011;64573;50.328;15.014;2024-02-28T01:48:15;15.60;;;8.52;;
75894;SDS011;64573;50.328;15.014;2024-02-28T01:50:41;16.48;;;8.50;;
75894;SDS011;64573;50.328;15.014;2024-02-28T01:53:06;14.57;;;8.65;;
75894;SDS011;64573;50.328;15.014;2024-02-28T01:55:36;16.38;;;8.90;;
75894;SDS011;64573;50.328;15.014;2024-02-28T01:58:02;14.45;;;7.50;;
75894;SDS011;64573;50.328;15.014;2024-02-28T02:00:30;14.90;;;7.80;;
75894;SDS011;64573;50.328;15.014;2024-02-28T02:02:57;15.57;;;8.18;;
75894;SDS011;64573;50.328;15.014;2024-02-28T02:05:24;14.23;;;7.30;;
75894;SDS011;64573;50.328;15.014;2024-02-28T02:07:49;13.95;;;7.70;;
75894;SDS011;64573;50.328;15.014;2024-02-28T02:10:15;14.57;;;7.93;;
75894;SDS011;64573;50.328;15.014;2024-02-28T02:12:41;20.63;;;8.27;;
75894;SDS011;64573;50.328;15.014;2024-02-28T02:15:06;16.83;;;8.02;;
75894;SDS011;64573;50.328;15.014;2024-02-28T02:17:32;14.57;;;7.72;;
75894;SDS011;64573;50.328;15.014;2024-02-28T02:19:57;16.27;;;8.13;;
75894;SDS011;64573;50.328;15.014;2024-02-28T02:22:23;14.43;;;8.00;;
75894;SDS011;64573;50.328;15.014;2024-02-28T02:24:52;14.27;;;7.38;;
75894;SDS011;64573;50.328;15.014;2024-02-28T02:27:17;12.57;;;7.57;;
75894;SDS011;64573;50.328;15.014;2024-02-28T02:29:43;15.23;;;7.43;;
75894;SDS011;64573;50.328;15.014;2024-02-28T02:32:08;15.27;;;7.38;;
75894;SDS011;64573;50.328;15.014;2024-02-28T02:34:33;15.10;;;7.53;;
75894;SDS011;64573;50.328;15.014;2024-02-28T02:36:59;14.93;;;7.65;;
75894;SDS011;64573;50.328;15.014;2024-02-28T02:39:24;14.65;;;7.65;;
75894;SDS011;64573;50.328;15.014;2024-02-28T02:41:50;15.32;;;8.10;;
75894;SDS011;64573;50.328;15.014;2024-02-28T02:46:45;15.82;;;7.90;;
75894;SDS011;64573;50.328;15.014;2024-02-28T02:49:10;13.15;;;7.18;;
75894;SDS011;64573;50.328;15.014;2024-02-28T02:51:36;14.35;;;7.53;;
75894;SDS011;64573;50.328;15.014;2024-02-28T02:54:01;12.60;;;7.25;;
75894;SDS011;64573;50.328;15.014;2024-02-28T02:56:26;16.27;;;7.82;;
75894;SDS011;64573;50.328;15.014;2024-02-28T02:58:52;16.73;;;7.55;;
75894;SDS011;64573;50.328;15.014;2024-02-28T03:01:17;15.38;;;8.02;;
75894;SDS011;64573;50.328;15.014;2024-02-28T03:03:45;14.60;;;7.78;;
75894;SDS011;64573;50.328;15.014;2024-02-28T03:06:10;14.60;;;8.10;;
75894;SDS011;64573;50.328;15.014;2024-02-28T03:08:35;13.63;;;7.82;;
75894;SDS011;64573;50.328;15.014;2024-02-28T03:11:00;15.02;;;8.88;;
75894;SDS011;64573;50.328;15.014;2024-02-28T03:13:26;14.75;;;8.60;;
75894;SDS011;64573;50.328;15.014;2024-02-28T03:15:51;16.55;;;8.48;;
75894;SDS011;64573;50.328;15.014;2024-02-28T03:18:16;17.33;;;8.20;;
75894;SDS011;64573;50.328;15.014;2024-02-28T03:20:42;14.68;;;7.72;;
75894;SDS011;64573;50.328;15.014;2024-02-28T03:23:07;14.63;;;8.00;;
75894;SDS011;64573;50.328;15.014;2024-02-28T03:25:32;16.05;;;9.43;;
75894;SDS011;64573;50.328;15.014;2024-02-28T03:27:58;19.67;;;9.68;;
75894;SDS011;64573;50.328;15.014;2024-02-28T03:30:24;16.55;;;8.50;;
75894;SDS011;64573;50.328;15.014;2024-02-28T03:32:50;17.90;;;8.88;;
75894;SDS011;64573;50.328;15.014;2024-02-28T03:35:15;14.57;;;8.30;;
75894;SDS011;64573;50.328;15.014;2024-02-28T03:37:41;20.20;;;9.18;;
75894;SDS011;64573;50.328;15.014;2024-02-28T03:40:06;17.08;;;9.20;;
75894;SDS011;64573;50.328;15.014;2024-02-28T03:42:32;21.45;;;9.50;;
75894;SDS011;64573;50.328;15.014;2024-02-28T03:44:57;17.25;;;9.50;;
75894;SDS011;64573;50.328;15.014;2024-02-28T03:47:23;17.65;;;8.98;;
75894;SDS011;64573;50.328;15.014;2024-02-28T03:49:49;17.88;;;8.77;;
75894;SDS011;64573;50.328;15.014;2024-02-28T03:52:15;17.15;;;8.73;;
75894;SDS011;64573;50.328;15.014;2024-02-28T03:54:42;18.45;;;9.35;;
75894;SDS011;64573;50.328;15.014;2024-02-28T03:57:08;18.23;;;10.20;;
75894;SDS011;64573;50.328;15.014;2024-02-28T03:59:34;20.75;;;9.43;;
75894;SDS011;64573;50.328;15.014;2024-02-28T04:01:59;16.92;;;9.32;;
75894;SDS011;64573;50.328;15.014;2024-02-28T04:04:24;16.33;;;8.90;;
75894;SDS011;64573;50.328;15.014;2024-02-28T04:09:15;17.38;;;8.50;;
75894;SDS011;64573;50.328;15.014;2024-02-28T04:11:40;18.45;;;8.68;;
75894;SDS011;64573;50.328;15.014;2024-02-28T04:14:07;17.45;;;8.38;;
75894;SDS011;64573;50.328;15.014;2024-02-28T04:16:33;19.10;;;9.25;;
75894;SDS011;64573;50.328;15.014;2024-02-28T04:18:58;17.20;;;8.98;;
75894;SDS011;64573;50.328;15.014;2024-02-28T04:21:23;19.02;;;9.18;;
75894;SDS011;64573;50.328;15.014;2024-02-28T04:23:49;17.90;;;8.68;;
75894;SDS011;64573;50.328;15.014;2024-02-28T04:26:14;18.35;;;9.00;;
75894;SDS011;64573;50.328;15.014;2024-02-28T04:28:41;16.27;;;8.20;;
75894;SDS011;64573;50.328;15.014;2024-02-28T04:31:07;16.92;;;8.55;;
75894;SDS011;64573;50.328;15.014;2024-02-28T04:33:34;17.63;;;8.43;;
75894;SDS011;64573;50.328;15.014;2024-02-28T04:38:26;15.70;;;8.25;;
75894;SDS011;64573;50.328;15.014;2024-02-28T04:40:51;16.30;;;8.38;;
75894;SDS011;64573;50.328;15.014;2024-02-28T04:45:44;18.58;;;9.15;;
75894;SDS011;64573;50.328;15.014;2024-02-28T04:48:10;20.90;;;9.80;;
75894;SDS011;64573;50.328;15.014;2024-02-28T04:50:35;17.35;;;8.57;;
75894;SDS011;64573;50.328;15.014;2024-02-28T04:53:00;18.95;;;9.23;;
75894;SDS011;64573;50.328;15.014;2024-02-28T04:55:26;18.08;;;8.93;;
75894;SDS011;64573;50.328;15.014;2024-02-28T04:57:54;18.75;;;8.70;;
75894;SDS011;64573;50.328;15.014;2024-02-28T05:00:19;18.85;;;8.82;;
75894;SDS011;64573;50.328;15.014;2024-02-28T05:02:45;18.58;;;8.88;;
75894;SDS011;64573;50.328;15.014;2024-02-28T05:05:10;20.95;;;9.23;;
75894;SDS011;64573;50.328;15.014;2024-02-28T05:07:35;21.20;;;9.88;;
75894;SDS011;64573;50.328;15.014;2024-02-28T05:10:01;21.42;;;10.02;;
75894;SDS011;64573;50.328;15.014;2024-02-28T05:12:26;18.70;;;9.68;;
75894;SDS011;64573;50.328;15.014;2024-02-28T05:14:52;22.23;;;9.75;;
75894;SDS011;64573;50.328;15.014;2024-02-28T05:17:17;23.33;;;11.25;;
75894;SDS011;64573;50.328;15.014;2024-02-28T05:19:42;22.75;;;10.13;;
75894;SDS011;64573;50.328;15.014;2024-02-28T05:22:08;19.75;;;9.75;;
75894;SDS011;64573;50.328;15.014;2024-02-28T05:24:36;21.58;;;10.52;;
75894;SDS011;64573;50.328;15.014;2024-02-28T05:27:01;22.42;;;10.43;;
75894;SDS011;64573;50.328;15.014;2024-02-28T05:29:27;21.25;;;9.82;;
75894;SDS011;64573;50.328;15.014;2024-02-28T05:31:52;24.30;;;10.40;;
75894;SDS011;64573;50.328;15.014;2024-02-28T05:34:18;26.10;;;10.35;;
75894;SDS011;64573;50.328;15.014;2024-02-28T05:36:43;21.73;;;9.75;;
75894;SDS011;64573;50.328;15.014;2024-02-28T05:39:08;19.92;;;10.05;;
75894;SDS011;64573;50.328;15.014;2024-02-28T05:41:34;23.40;;;10.10;;
75894;SDS011;64573;50.328;15.014;2024-02-28T05:43:59;21.55;;;11.35;;
75894;SDS011;64573;50.328;15.014;2024-02-28T05:46:24;22.30;;;10.77;;
75894;SDS011;64573;50.328;15.014;2024-02-28T05:48:50;22.58;;;10.40;;
75894;SDS011;64573;50.328;15.014;2024-02-28T05:51:15;26.15;;;10.98;;
75894;SDS011;64573;50.328;15.014;2024-02-28T05:53:41;25.45;;;11.25;;
75894;SDS011;64573;50.328;15.014;2024-02-28T05:56:08;23.42;;;11.43;;
75894;SDS011;64573;50.328;15.014;2024-02-28T05:58:40;23.67;;;11.23;;
75894;SDS011;64573;50.328;15.014;2024-02-28T06:01:06;28.10;;;11.80;;
75894;SDS011;64573;50.328;15.014;2024-02-28T06:03:32;26.50;;;12.40;;
75894;SDS011;64573;50.328;15.014;2024-02-28T06:05:58;22.15;;;10.98;;
75894;SDS011;64573;50.328;15.014;2024-02-28T06:08:23;23.85;;;11.02;;
75894;SDS011;64573;50.328;15.014;2024-02-28T06:10:48;24.27;;;11.00;;
75894;SDS011;64573;50.328;15.014;2024-02-28T06:13:14;26.85;;;10.70;;
75894;SDS011;64573;50.328;15.014;2024-02-28T06:15:39;26.40;;;11.48;;
75894;SDS011;64573;50.328;15.014;2024-02-28T06:18:05;22.92;;;10.73;;
75894;SDS011;64573;50.328;15.014;2024-02-28T06:20:30;25.30;;;11.15;;
75894;SDS011;64573;50.328;15.014;2024-02-28T06:22:56;25.50;;;11.73;;
75894;SDS011;64573;50.328;15.014;2024-02-28T06:25:21;25.80;;;10.98;;
75894;SDS011;64573;50.328;15.014;2024-02-28T06:27:48;22.00;;;10.90;;
75894;SDS011;64573;50.328;15.014;2024-02-28T06:30:14;25.85;;;11.27;;
75894;SDS011;64573;50.328;15.014;2024-02-28T06:32:42;25.45;;;11.70;;
75894;SDS011;64573;50.328;15.014;2024-02-28T06:35:08;23.85;;;11.48;;
75894;SDS011;64573;50.328;15.014;2024-02-28T06:37:34;22.88;;;11.20;;
75894;SDS011;64573;50.328;15.014;2024-02-28T06:40:00;24.30;;;11.88;;
75894;SDS011;64573;50.328;15.014;2024-02-28T06:42:25;24.75;;;10.77;;
75894;SDS011;64573;50.328;15.014;2024-02-28T06:44:50;25.10;;;11.27;;
75894;SDS011;64573;50.328;15.014;2024-02-28T06:47:16;23.05;;;10.85;;
75894;SDS011;64573;50.328;15.014;2024-02-28T06:49:43;26.98;;;12.10;;
75894;SDS011;64573;50.328;15.014;2024-02-28T06:52:08;23.27;;;10.98;;
75894;SDS011;64573;50.328;15.014;2024-02-28T06:54:33;23.83;;;11.13;;
75894;SDS011;64573;50.328;15.014;2024-02-28T06:56:59;26.38;;;11.63;;
75894;SDS011;64573;50.328;15.014;2024-02-28T06:59:24;23.33;;;11.02;;
75894;SDS011;64573;50.328;15.014;2024-02-28T07:01:50;23.02;;;11.45;;
75894;SDS011;64573;50.328;15.014;2024-02-28T07:04:15;22.73;;;9.90;;
75894;SDS011;64573;50.328;15.014;2024-02-28T07:06:40;19.92;;;9.63;;
75894;SDS011;64573;50.328;15.014;2024-02-28T07:09:09;20.77;;;9.80;;
75894;SDS011;64573;50.328;15.014;2024-02-28T07:11:34;20.75;;;9.68;;
75894;SDS011;64573;50.328;15.014;2024-02-28T07:14:00;24.25;;;9.73;;
75894;SDS011;64573;50.328;15.014;2024-02-28T07:16:28;20.33;;;8.90;;
75894;SDS011;64573;50.328;15.014;2024-02-28T07:18:54;19.38;;;8.93;;
75894;SDS011;64573;50.328;15.014;2024-02-28T07:21:19;18.45;;;9.27;;
75894;SDS011;64573;50.328;15.014;2024-02-28T07:23:44;18.63;;;8.88;;
75894;SDS011;64573;50.328;15.014;2024-02-28T07:26:14;20.13;;;9.05;;
75894;SDS011;64573;50.328;15.014;2024-02-28T07:28:40;17.83;;;9.15;;
75894;SDS011;64573;50.328;15.014;2024-02-28T07:31:05;19.00;;;9.93;;
75894;SDS011;64573;50.328;15.014;2024-02-28T07:33:30;19.08;;;9.93;;
75894;SDS011;64573;50.328;15.014;2024-02-28T07:35:56;15.35;;;8.25;;
75894;SDS011;64573;50.328;15.014;2024-02-28T07:38:25;18.23;;;8.30;;
75894;SDS011;64573;50.328;15.014;2024-02-28T07:40:52;19.33;;;8.13;;
75894;SDS011;64573;50.328;15.014;2024-02-28T07:43:18;18.27;;;9.07;;
75894;SDS011;64573;50.328;15.014;2024-02-28T07:45:43;18.83;;;9.52;;
75894;SDS011;64573;50.328;15.014;2024-02-28T07:48:09;15.88;;;8.70;;
75894;SDS011;64573;50.328;15.014;2024-02-28T07:50:34;19.15;;;9.50;;
75894;SDS011;64573;50.328;15.014;2024-02-28T07:52:59;17.33;;;9.00;;
75894;SDS011;64573;50.328;15.014;2024-02-28T07:55:25;21.73;;;9.52;;
75894;SDS011;64573;50.328;15.014;2024-02-28T07:57:51;21.30;;;9.75;;
75894;SDS011;64573;50.328;15.014;2024-02-28T08:00:17;18.67;;;9.27;;
75894;SDS011;64573;50.328;15.014;2024-02-28T08:02:44;23.73;;;11.63;;
75894;SDS011;64573;50.328;15.014;2024-02-28T08:05:09;27.00;;;11.32;;
75894;SDS011;64573;50.328;15.014;2024-02-28T08:07:35;22.25;;;10.75;;
75894;SDS011;64573;50.328;15.014;2024-02-28T08:10:00;20.65;;;9.38;;
75894;SDS011;64573;50.328;15.014;2024-02-28T08:12:26;18.88;;;9.15;;
75894;SDS011;64573;50.328;15.014;2024-02-28T08:14:51;19.05;;;9.02;;
75894;SDS011;64573;50.328;15.014;2024-02-28T08:17:17;17.55;;;8.73;;
75894;SDS011;64573;50.328;15.014;2024-02-28T08:19:42;18.58;;;8.63;;
75894;SDS011;64573;50.328;15.014;2024-02-28T08:22:08;22.27;;;9.15;;
75894;SDS011;64573;50.328;15.014;2024-02-28T08:24:34;14.90;;;8.40;;
75894;SDS011;64573;50.328;15.014;2024-02-28T08:26:59;15.05;;;7.75;;
75894;SDS011;64573;50.328;15.014;2024-02-28T08:29:25;14.30;;;7.28;;
75894;SDS011;64573;50.328;15.014;2024-02-28T08:31:51;14.38;;;7.57;;
75894;SDS011;64573;50.328;15.014;2024-02-28T08:34:16;17.58;;;8.73;;
75894;SDS011;64573;50.328;15.014;2024-02-28T08:36:42;18.27;;;8.00;;
75894;SDS011;64573;50.328;15.014;2024-02-28T08:39:08;17.55;;;9.07;;
75894;SDS011;64573;50.328;15.014;2024-02-28T08:41:34;17.20;;;9.27;;
75894;SDS011;64573;50.328;15.014;2024-02-28T08:44:00;23.48;;;11.85;;
75894;SDS011;64573;50.328;15.014;2024-02-28T08:46:25;23.90;;;11.35;;
75894;SDS011;64573;50.328;15.014;2024-02-28T08:48:50;16.73;;;8.00;;
75894;SDS011;64573;50.328;15.014;2024-02-28T08:51:16;17.60;;;7.50;;
75894;SDS011;64573;50.328;15.014;2024-02-28T08:53:41;16.30;;;8.02;;
75894;SDS011;64573;50.328;15.014;2024-02-28T08:56:06;18.95;;;8.15;;
75894;SDS011;64573;50.328;15.014;2024-02-28T08:58:32;16.73;;;8.02;;
75894;SDS011;64573;50.328;15.014;2024-02-28T09:00:57;15.55;;;8.25;;
75894;SDS011;64573;50.328;15.014;2024-02-28T09:03:23;18.92;;;8.35;;
75894;SDS011;64573;50.328;15.014;2024-02-28T09:05:48;16.42;;;8.75;;
75894;SDS011;64573;50.328;15.014;2024-02-28T09:08:14;17.88;;;8.40;;
75894;SDS011;64573;50.328;15.014;2024-02-28T09:10:39;17.00;;;8.00;;
75894;SDS011;64573;50.328;15.014;2024-02-28T09:13:04;15.02;;;8.27;;
75894;SDS011;64573;50.328;15.014;2024-02-28T09:15:31;18.60;;;8.73;;
75894;SDS011;64573;50.328;15.014;2024-02-28T09:17:57;20.40;;;10.38;;
75894;SDS011;64573;50.328;15.014;2024-02-28T09:20:22;16.52;;;7.80;;
75894;SDS011;64573;50.328;15.014;2024-02-28T09:22:47;17.83;;;8.27;;
75894;SDS011;64573;50.328;15.014;2024-02-28T09:25:13;16.55;;;7.72;;
75894;SDS011;64573;50.328;15.014;2024-02-28T09:27:40;19.83;;;8.68;;
75894;SDS011;64573;50.328;15.014;2024-02-28T09:30:06;20.35;;;9.20;;
75894;SDS011;64573;50.328;15.014;2024-02-28T09:32:32;20.38;;;8.73;;
75894;SDS011;64573;50.328;15.014;2024-02-28T09:34:57;19.80;;;9.20;;
75894;SDS011;64573;50.328;15.014;2024-02-28T09:37:23;19.38;;;8.32;;
75894;SDS011;64573;50.328;15.014;2024-02-28T09:39:50;18.92;;;8.48;;
75894;SDS011;64573;50.328;15.014;2024-02-28T09:42:15;20.13;;;9.52;;
75894;SDS011;64573;50.328;15.014;2024-02-28T09:44:41;17.45;;;9.20;;
75894;SDS011;64573;50.328;15.014;2024-02-28T09:47:08;19.30;;;9.45;;
75894;SDS011;64573;50.328;15.014;2024-02-28T09:49:33;23.33;;;9.80;;
75894;SDS011;64573;50.328;15.014;2024-02-28T09:52:01;21.35;;;8.98;;
75894;SDS011;64573;50.328;15.014;2024-02-28T09:54:28;18.80;;;8.85;;
75894;SDS011;64573;50.328;15.014;2024-02-28T09:56:54;16.25;;;8.95;;
75894;SDS011;64573;50.328;15.014;2024-02-28T09:59:20;15.30;;;7.72;;
75894;SDS011;64573;50.328;15.014;2024-02-28T10:01:55;13.55;;;7.28;;
75894;SDS011;64573;50.328;15.014;2024-02-28T10:04:23;15.55;;;7.35;;
75894;SDS011;64573;50.328;15.014;2024-02-28T10:06:50;16.13;;;7.30;;
75894;SDS011;64573;50.328;15.014;2024-02-28T10:09:16;13.68;;;6.88;;
75894;SDS011;64573;50.328;15.014;2024-02-28T10:11:41;13.40;;;6.55;;
75894;SDS011;64573;50.328;15.014;2024-02-28T10:14:09;12.95;;;7.38;;
75894;SDS011;64573;50.328;15.014;2024-02-28T10:16:35;15.27;;;7.20;;
75894;SDS011;64573;50.328;15.014;2024-02-28T10:19:00;12.98;;;7.32;;
75894;SDS011;64573;50.328;15.014;2024-02-28T10:21:26;17.65;;;8.45;;
75894;SDS011;64573;50.328;15.014;2024-02-28T10:23:51;23.90;;;9.82;;
75894;SDS011;64573;50.328;15.014;2024-02-28T10:26:17;12.65;;;6.88;;
75894;SDS011;64573;50.328;15.014;2024-02-28T10:28:42;13.88;;;8.10;;
75894;SDS011;64573;50.328;15.014;2024-02-28T10:31:10;12.57;;;6.70;;
75894;SDS011;64573;50.328;15.014;2024-02-28T10:33:37;14.18;;;7.40;;
75894;SDS011;64573;50.328;15.014;2024-02-28T10:36:02;19.98;;;8.05;;
75894;SDS011;64573;50.328;15.014;2024-02-28T10:38:30;16.85;;;8.43;;
75894;SDS011;64573;50.328;15.014;2024-02-28T10:40:56;20.27;;;9.30;;
75894;SDS011;64573;50.328;15.014;2024-02-28T10:43:22;16.90;;;7.40;;
75894;SDS011;64573;50.328;15.014;2024-02-28T10:45:50;20.55;;;9.13;;
75894;SDS011;64573;50.328;15.014;2024-02-28T10:48:16;16.13;;;7.18;;
75894;SDS011;64573;50.328;15.014;2024-02-28T10:50:43;16.63;;;7.88;;
75894;SDS011;64573;50.328;15.014;2024-02-28T10:53:13;17.13;;;8.95;;
75894;SDS011;64573;50.328;15.014;2024-02-28T10:55:40;16.58;;;7.53;;
75894;SDS011;64573;50.328;15.014;2024-02-28T10:58:06;14.27;;;7.80;;
75894;SDS011;64573;50.328;15.014;2024-02-28T11:00:33;13.63;;;6.75;;
75894;SDS011;64573;50.328;15.014;2024-02-28T11:03:00;14.93;;;7.18;;
75894;SDS011;64573;50.328;15.014;2024-02-28T11:05:40;14.02;;;7.25;;
75894;SDS011;64573;50.328;15.014;2024-02-28T11:08:11;11.45;;;6.13;;
75894;SDS011;64573;50.328;15.014;2024-02-28T11:10:44;10.05;;;5.63;;
75894;SDS011;64573;50.328;15.014;2024-02-28T11:13:21;11.60;;;5.43;;
75894;SDS011;64573;50.328;15.014;2024-02-28T11:15:47;13.45;;;6.90;;
75894;SDS011;64573;50.328;15.014;2024-02-28T11:18:12;12.15;;;6.97;;
75894;SDS011;64573;50.328;15.014;2024-02-28T11:20:37;13.40;;;6.20;;
75894;SDS011;64573;50.328;15.014;2024-02-28T11:23:03;12.27;;;6.22;;
75894;SDS011;64573;50.328;15.014;2024-02-28T11:25:31;10.82;;;6.18;;
75894;SDS011;64573;50.328;15.014;2024-02-28T11:27:56;13.68;;;5.40;;
75894;SDS011;64573;50.328;15.014;2024-02-28T11:30:22;11.55;;;6.18;;
75894;SDS011;64573;50.328;15.014;2024-02-28T11:32:47;11.68;;;6.30;;
75894;SDS011;64573;50.328;15.014;2024-02-28T11:35:13;13.15;;;6.45;;
75894;SDS011;64573;50.328;15.014;2024-02-28T11:37:38;16.30;;;9.60;;
75894;SDS011;64573;50.328;15.014;2024-02-28T11:40:07;18.02;;;9.40;;
75894;SDS011;64573;50.328;15.014;2024-02-28T11:42:37;22.95;;;12.55;;
75894;SDS011;64573;50.328;15.014;2024-02-28T11:45:04;23.75;;;12.20;;
75894;SDS011;64573;50.328;15.014;2024-02-28T11:47:31;17.40;;;10.77;;
75894;SDS011;64573;50.328;15.014;2024-02-28T11:50:01;17.13;;;7.75;;
75894;SDS011;64573;50.328;15.014;2024-02-28T11:52:30;14.30;;;7.45;;
75894;SDS011;64573;50.328;15.014;2024-02-28T11:54:55;14.23;;;7.38;;
75894;SDS011;64573;50.328;15.014;2024-02-28T11:57:21;17.05;;;8.30;;
75894;SDS011;64573;50.328;15.014;2024-02-28T11:59:47;14.80;;;7.63;;
75894;SDS011;64573;50.328;15.014;2024-02-28T12:02:13;17.02;;;8.00;;
75894;SDS011;64573;50.328;15.014;2024-02-28T12:04:41;15.88;;;7.18;;
75894;SDS011;64573;50.328;15.014;2024-02-28T12:07:10;16.20;;;8.35;;
75894;SDS011;64573;50.328;15.014;2024-02-28T12:09:36;18.00;;;9.02;;
75894;SDS011;64573;50.328;15.014;2024-02-28T12:12:02;15.43;;;8.27;;
75894;SDS011;64573;50.328;15.014;2024-02-28T12:14:32;19.85;;;10.02;;
75894;SDS011;64573;50.328;15.014;2024-02-28T12:17:01;13.55;;;7.50;;
75894;SDS011;64573;50.328;15.014;2024-02-28T12:19:27;16.08;;;7.65;;
75894;SDS011;64573;50.328;15.014;2024-02-28T12:21:53;16.88;;;7.82;;
75894;SDS011;64573;50.328;15.014;2024-02-28T12:24:19;17.88;;;7.80;;
75894;SDS011;64573;50.328;15.014;2024-02-28T12:26:45;15.98;;;7.25;;
75894;SDS011;64573;50.328;15.014;2024-02-28T12:29:11;14.35;;;7.10;;
75894;SDS011;64573;50.328;15.014;2024-02-28T12:31:36;12.77;;;6.60;;
75894;SDS011;64573;50.328;15.014;2024-02-28T12:34:02;17.52;;;8.38;;
75894;SDS011;64573;50.328;15.014;2024-02-28T12:36:28;15.30;;;6.60;;
75894;SDS011;64573;50.328;15.014;2024-02-28T12:38:55;16.63;;;7.45;;
75894;SDS011;64573;50.328;15.014;2024-02-28T12:41:21;16.73;;;8.57;;
75894;SDS011;64573;50.328;15.014;2024-02-28T12:43:47;14.32;;;7.15;;
75894;SDS011;64573;50.328;15.014;2024-02-28T12:46:12;15.65;;;6.72;;
75894;SDS011;64573;50.328;15.014;2024-02-28T12:48:38;14.10;;;6.93;;
75894;SDS011;64573;50.328;15.014;2024-02-28T12:51:04;17.17;;;8.38;;
75894;SDS011;64573;50.328;15.014;2024-02-28T12:53:33;13.15;;;6.93;;
75894;SDS011;64573;50.328;15.014;2024-02-28T12:55:59;11.32;;;6.60;;
75894;SDS011;64573;50.328;15.014;2024-02-28T12:58:24;14.18;;;6.50;;
75894;SDS011;64573;50.328;15.014;2024-02-28T13:00:49;13.75;;;6.32;;
75894;SDS011;64573;50.328;15.014;2024-02-28T13:03:15;12.45;;;6.50;;
75894;SDS011;64573;50.328;15.014;2024-02-28T13:05:43;11.65;;;5.93;;
75894;SDS011;64573;50.328;15.014;2024-02-28T13:08:09;13.02;;;6.75;;
75894;SDS011;64573;50.328;15.014;2024-02-28T13:10:37;14.68;;;6.65;;
75894;SDS011;64573;50.328;15.014;2024-02-28T13:13:06;10.75;;;5.65;;
75894;SDS011;64573;50.328;15.014;2024-02-28T13:15:32;12.13;;;5.65;;
75894;SDS011;64573;50.328;15.014;2024-02-28T13:17:57;14.25;;;6.65;;
75894;SDS011;64573;50.328;15.014;2024-02-28T13:20:23;10.68;;;5.63;;
75894;SDS011;64573;50.328;15.014;2024-02-28T13:22:48;12.32;;;6.40;;
75894;SDS011;64573;50.328;15.014;2024-02-28T13:25:15;12.38;;;6.40;;
75894;SDS011;64573;50.328;15.014;2024-02-28T13:27:40;13.05;;;6.40;;
75894;SDS011;64573;50.328;15.014;2024-02-28T13:30:06;13.95;;;6.95;;
75894;SDS011;64573;50.328;15.014;2024-02-28T13:32:32;10.43;;;5.18;;
75894;SDS011;64573;50.328;15.014;2024-02-28T13:34:58;14.10;;;6.75;;
75894;SDS011;64573;50.328;15.014;2024-02-28T13:37:23;11.85;;;5.90;;
75894;SDS011;64573;50.328;15.014;2024-02-28T13:39:49;14.27;;;6.40;;
75894;SDS011;64573;50.328;15.014;2024-02-28T13:42:17;11.23;;;5.68;;
75894;SDS011;64573;50.328;15.014;2024-02-28T13:44:47;16.70;;;6.30;;
75894;SDS011;64573;50.328;15.014;2024-02-28T13:47:17;9.35;;;5.28;;
75894;SDS011;64573;50.328;15.014;2024-02-28T13:49:43;10.15;;;5.43;;
75894;SDS011;64573;50.328;15.014;2024-02-28T13:52:09;12.35;;;6.10;;
75894;SDS011;64573;50.328;15.014;2024-02-28T13:54:37;14.95;;;6.60;;
75894;SDS011;64573;50.328;15.014;2024-02-28T13:57:03;10.75;;;5.75;;
75894;SDS011;64573;50.328;15.014;2024-02-28T13:59:29;11.48;;;5.95;;
75894;SDS011;64573;50.328;15.014;2024-02-28T14:01:55;13.20;;;6.18;;
75894;SDS011;64573;50.328;15.014;2024-02-28T14:04:21;13.57;;;6.30;;
75894;SDS011;64573;50.328;15.014;2024-02-28T14:06:46;11.05;;;5.50;;
75894;SDS011;64573;50.328;15.014;2024-02-28T14:09:12;12.48;;;5.47;;
75894;SDS011;64573;50.328;15.014;2024-02-28T14:11:53;11.77;;;5.13;;
75894;SDS011;64573;50.328;15.014;2024-02-28T14:14:21;13.75;;;5.82;;
75894;SDS011;64573;50.328;15.014;2024-02-28T14:16:47;14.10;;;6.82;;
75894;SDS011;64573;50.328;15.014;2024-02-28T14:19:16;12.95;;;6.47;;
75894;SDS011;64573;50.328;15.014;2024-02-28T14:21:41;11.82;;;6.60;;
75894;SDS011;64573;50.328;15.014;2024-02-28T14:24:07;15.18;;;7.47;;
75894;SDS011;64573;50.328;15.014;2024-02-28T14:26:32;11.80;;;6.65;;